createdAt,value
2022-10-17T00:01:13.512Z,7.36
2022-10-17T00:03:42.029Z,7.37
2022-10-17T00:06:14.319Z,7.37
2022-10-17T00:08:44.340Z,7.39
2022-10-17T00:11:22.978Z,7.39
2022-10-17T00:13:55.837Z,7.42
2022-10-17T00:16:28.620Z,7.43
2022-10-17T00:18:57.619Z,7.43
2022-10-17T00:21:26.805Z,7.43
2022-10-17T00:23:55.877Z,7.43
2022-10-17T00:26:24.258Z,7.39
2022-10-17T00:28:53.477Z,7.43
2022-10-17T00:31:24.523Z,7.42
2022-10-17T00:33:53.205Z,7.42
2022-10-17T00:36:25.427Z,7.40
2022-10-17T00:38:58.241Z,7.39
2022-10-17T00:41:33.516Z,7.39
2022-10-17T00:44:03.205Z,7.35
2022-10-17T00:46:37.104Z,7.36
2022-10-17T00:49:10.098Z,7.33
2022-10-17T00:51:46.026Z,7.32
2022-10-17T00:54:17.723Z,7.31
2022-10-17T00:56:48.131Z,7.30
2022-10-17T00:59:19.470Z,7.31
2022-10-17T01:02:05.572Z,7.32
2022-10-17T01:04:33.850Z,7.32
2022-10-17T01:07:02.194Z,7.33
2022-10-17T01:09:30.986Z,7.34
2022-10-17T01:12:37.594Z,7.35
2022-10-17T01:15:28.022Z,7.36
2022-10-17T01:18:18.088Z,7.35
2022-10-17T01:21:15.959Z,7.32
2022-10-17T01:24:25.699Z,7.30
2022-10-17T01:27:10.675Z,7.25
2022-10-17T01:30:15.712Z,7.21
2022-10-17T01:32:48.280Z,7.15
2022-10-17T01:35:37.542Z,7.06
2022-10-17T01:38:14.421Z,7.04
2022-10-17T01:41:00.362Z,7.02
2022-10-17T01:43:46.877Z,7.00
2022-10-17T01:46:32.080Z,7.00
2022-10-17T01:49:02.963Z,7.01
2022-10-17T01:51:46.254Z,7.02
2022-10-17T01:54:24.629Z,7.02
2022-10-17T01:57:00.613Z,6.95
2022-10-17T01:59:47.534Z,6.96
2022-10-17T02:02:19.343Z,6.91
2022-10-17T02:04:51.195Z,6.89
2022-10-17T02:07:19.645Z,6.85
2022-10-17T02:09:48.022Z,6.81
2022-10-17T02:12:30.638Z,6.80
2022-10-17T02:15:17.037Z,6.79
2022-10-17T02:17:54.225Z,6.80
2022-10-17T02:20:36.438Z,6.76
2022-10-17T02:23:45.103Z,6.79
2022-10-17T02:27:02.665Z,6.78
2022-10-17T02:29:45.168Z,6.75
2022-10-17T02:32:26.969Z,6.74
2022-10-17T02:34:59.133Z,6.71
2022-10-17T02:37:31.378Z,6.68
2022-10-17T02:40:02.360Z,6.66
2022-10-17T02:42:32.375Z,6.63
2022-10-17T02:45:02.975Z,6.60
2022-10-17T02:47:50.213Z,6.57
2022-10-17T02:50:23.565Z,6.52
2022-10-17T02:53:06.114Z,6.46
2022-10-17T02:55:43.917Z,6.46
2022-10-17T02:58:20.019Z,6.41
2022-10-17T03:00:50.829Z,6.37
2022-10-17T03:03:29.017Z,6.34
2022-10-17T03:06:01.310Z,6.29
2022-10-17T03:08:29.703Z,6.23
2022-10-17T03:10:59.785Z,6.18
2022-10-17T03:13:30.341Z,6.14
2022-10-17T03:15:58.724Z,6.11
2022-10-17T03:18:27.069Z,6.07
2022-10-17T03:20:58.932Z,6.04
2022-10-17T03:23:27.323Z,6.00
2022-10-17T03:25:55.792Z,5.97
2022-10-17T03:28:24.496Z,5.95
2022-10-17T03:30:52.852Z,5.92
2022-10-17T03:33:21.129Z,5.87
2022-10-17T03:38:25.363Z,5.81
2022-10-17T03:40:56.909Z,5.79
2022-10-17T03:43:25.408Z,5.76
2022-10-17T03:45:54.090Z,5.70
2022-10-17T03:48:22.457Z,5.71
2022-10-17T03:50:50.910Z,5.72
2022-10-17T03:53:19.637Z,5.73
2022-10-17T03:55:48.150Z,5.74
2022-10-17T03:58:16.402Z,5.71
2022-10-17T04:00:46.153Z,5.78
2022-10-17T04:03:17.216Z,5.78
2022-10-17T04:05:46.016Z,5.81
2022-10-17T04:08:14.271Z,5.83
2022-10-17T04:11:25.048Z,5.83
2022-10-17T04:13:56.949Z,5.83
2022-10-17T04:16:27.333Z,5.83
2022-10-17T04:19:00.588Z,5.85
2022-10-17T04:21:31.844Z,5.82
2022-10-17T04:24:04.281Z,5.85
2022-10-17T04:27:26.123Z,5.85
2022-10-17T04:29:55.152Z,5.84
2022-10-17T04:32:26.240Z,5.83
2022-10-17T04:35:15.824Z,5.82
2022-10-17T04:37:47.888Z,5.80
2022-10-17T04:40:21.307Z,5.79
2022-10-17T04:42:50.047Z,5.77
2022-10-17T04:45:20.799Z,5.79
2022-10-17T04:47:50.329Z,5.81
2022-10-17T04:50:20.967Z,5.83
2022-10-17T04:53:05.885Z,5.84
2022-10-17T04:55:38.855Z,5.86
2022-10-17T04:58:07.330Z,5.89
2022-10-17T05:00:36.269Z,5.92
2022-10-17T05:03:15.474Z,5.95
2022-10-17T05:05:44.136Z,5.94
2022-10-17T05:08:13.042Z,5.99
2022-10-17T05:10:44.764Z,6.01
2022-10-17T05:13:13.441Z,6.03
2022-10-17T05:15:41.951Z,6.07
2022-10-17T05:18:10.347Z,6.08
2022-10-17T05:20:39.448Z,6.10
2022-10-17T05:23:08.312Z,6.14
2022-10-17T05:25:39.502Z,6.18
2022-10-17T05:28:07.847Z,6.15
2022-10-17T05:30:37.774Z,6.26
2022-10-17T05:33:07.550Z,6.30
2022-10-17T05:35:36.327Z,6.36
2022-10-17T05:38:04.801Z,6.37
2022-10-17T05:40:34.593Z,6.42
2022-10-17T05:43:04.076Z,6.51
2022-10-17T05:45:32.670Z,6.56
2022-10-17T05:48:01.460Z,6.61
2022-10-17T05:50:30.131Z,6.67
2022-10-17T05:53:05.925Z,6.69
2022-10-17T05:55:39.190Z,6.76
2022-10-17T05:58:11.739Z,6.86
2022-10-17T06:03:20.245Z,7.02
2022-10-17T06:05:48.622Z,7.11
2022-10-17T06:08:17.228Z,7.15
2022-10-17T06:10:51.337Z,7.24
2022-10-17T06:13:19.744Z,7.34
2022-10-17T06:15:51.516Z,7.43
2022-10-17T06:18:21.558Z,7.52
2022-10-17T06:20:50.300Z,7.57
2022-10-17T06:23:20.315Z,7.70
2022-10-17T06:26:01.003Z,7.79
2022-10-17T06:28:31.067Z,7.86
2022-10-17T06:30:59.516Z,7.94
2022-10-17T06:33:28.385Z,8.02
2022-10-17T06:35:57.689Z,8.07
2022-10-17T06:38:26.869Z,8.18
2022-10-17T06:41:10.806Z,8.18
2022-10-17T06:43:40.449Z,8.34
2022-10-17T06:46:55.261Z,8.44
2022-10-17T06:49:29.937Z,8.52
2022-10-17T06:52:25.631Z,8.60
2022-10-17T06:55:15.790Z,8.63
2022-10-17T06:58:07.584Z,8.75
2022-10-17T07:00:45.747Z,8.82
2022-10-17T07:03:14.492Z,8.89
2022-10-17T07:05:43.489Z,8.89
2022-10-17T07:08:11.773Z,9.02
2022-10-17T07:11:01.489Z,9.08
2022-10-17T07:13:29.897Z,9.15
2022-10-17T07:16:01.979Z,9.18
2022-10-17T07:18:31.815Z,9.28
2022-10-17T07:21:00.220Z,9.31
2022-10-17T07:23:28.939Z,9.42
2022-10-17T07:26:07.692Z,9.44
2022-10-17T07:28:40.244Z,9.54
2022-10-17T07:31:23.459Z,9.59
2022-10-17T07:33:52.032Z,9.64
2022-10-17T07:36:20.308Z,9.71
2022-10-17T07:38:48.739Z,9.77
2022-10-17T07:41:21.754Z,9.76
2022-10-17T07:43:50.940Z,9.94
2022-10-17T07:46:23.300Z,10.03
2022-10-17T07:48:52.338Z,10.04
2022-10-17T07:51:22.412Z,10.18
2022-10-17T07:53:50.698Z,10.24
2022-10-17T07:56:19.103Z,10.30
2022-10-17T07:58:48.506Z,10.34
2022-10-17T08:01:17.899Z,10.44
2022-10-17T08:03:49.220Z,10.44
2022-10-17T08:06:17.928Z,10.58
2022-10-17T08:08:46.317Z,10.63
2022-10-17T08:11:15.585Z,10.72
2022-10-17T08:13:44.059Z,10.81
2022-10-17T08:16:13.695Z,10.90
2022-10-17T08:18:42.992Z,11.00
2022-10-17T08:21:13.504Z,11.07
2022-10-17T08:23:42.782Z,11.10
2022-10-17T08:26:13.622Z,11.23
2022-10-17T08:28:42.044Z,11.27
2022-10-17T08:31:14.773Z,11.33
2022-10-17T08:33:43.056Z,11.38
2022-10-17T08:36:15.176Z,11.45
2022-10-17T08:38:45.453Z,11.55
2022-10-17T08:42:10.457Z,11.56
2022-10-17T08:44:54.270Z,11.72
2022-10-17T08:47:46.356Z,11.77
2022-10-17T08:50:31.025Z,11.81
2022-10-17T08:53:26.062Z,11.89
2022-10-17T08:55:55.097Z,11.97
2022-10-17T08:58:29.181Z,12.03
2022-10-17T09:01:12.698Z,12.11
2022-10-17T09:03:59.338Z,12.18
2022-10-17T09:06:34.639Z,12.22
2022-10-17T09:09:11.855Z,12.30
2022-10-17T09:12:02.931Z,12.30
2022-10-17T09:14:57.064Z,12.34
2022-10-17T09:17:45.284Z,12.43
2022-10-17T09:20:23.904Z,12.46
2022-10-17T09:23:17.081Z,12.52
2022-10-17T09:25:53.554Z,12.55
2022-10-17T09:28:34.947Z,12.58
2022-10-17T09:31:14.722Z,12.63
2022-10-17T09:33:54.370Z,12.65
2022-10-17T09:36:35.165Z,12.71
2022-10-17T09:39:17.781Z,12.75
2022-10-17T09:41:57.186Z,12.80
2022-10-17T09:44:32.178Z,12.84
2022-10-17T09:47:21.626Z,12.86
2022-10-17T09:49:50.795Z,12.88
2022-10-17T09:52:35.269Z,12.89
2022-10-17T09:55:22.386Z,12.83
2022-10-17T09:57:59.750Z,12.83
2022-10-17T10:00:37.049Z,12.86
2022-10-17T10:03:13.228Z,12.80
2022-10-17T10:05:43.424Z,12.82
2022-10-17T10:08:19.785Z,12.80
2022-10-17T10:11:03.445Z,12.82
2022-10-17T10:13:34.078Z,12.80
2022-10-17T10:16:33.487Z,12.79
2022-10-17T10:19:03.714Z,12.74
2022-10-17T10:21:37.203Z,12.76
2022-10-17T10:24:12.058Z,12.71
2022-10-17T10:26:50.169Z,12.76
2022-10-17T10:29:24.314Z,12.76
2022-10-17T10:31:54.110Z,12.76
2022-10-17T10:34:29.325Z,12.75
2022-10-17T10:37:07.418Z,12.76
2022-10-17T10:39:42.162Z,12.73
2022-10-17T10:42:52.281Z,12.77
2022-10-17T10:45:48.664Z,12.67
2022-10-17T10:48:30.725Z,12.81
2022-10-17T10:51:17.769Z,12.84
2022-10-17T11:00:32.697Z,12.97
2022-10-17T11:03:14.036Z,12.96
2022-10-17T11:06:14.218Z,12.97
2022-10-17T11:09:03.105Z,12.97
2022-10-17T11:11:58.360Z,13.03
2022-10-17T11:14:51.987Z,13.04
2022-10-17T11:17:43.553Z,13.01
2022-10-17T11:20:34.461Z,13.06
2022-10-17T11:23:53.426Z,13.06
2022-10-17T11:26:40.374Z,13.07
2022-10-17T11:29:13.404Z,13.09
2022-10-17T11:31:50.862Z,13.11
2022-10-17T11:34:36.340Z,13.19
2022-10-17T11:37:15.191Z,13.33
2022-10-17T11:39:52.021Z,13.38
2022-10-17T11:43:01.805Z,13.35
2022-10-17T11:45:39.394Z,13.39
2022-10-17T11:48:20.895Z,13.34
2022-10-17T11:54:12.378Z,13.43
2022-10-17T11:57:50.517Z,13.40
2022-10-17T12:00:53.393Z,13.43
2022-10-17T12:03:53.648Z,13.40
2022-10-17T12:06:37.435Z,13.47
2022-10-17T12:09:38.014Z,13.48
2022-10-17T12:12:06.834Z,13.53
2022-10-17T12:14:43.047Z,13.57
2022-10-17T12:17:39.267Z,13.58
2022-10-17T12:20:23.787Z,13.57
2022-10-17T12:23:30.166Z,13.56
2022-10-17T12:26:04.753Z,13.55
2022-10-17T12:28:37.757Z,13.56
2022-10-17T12:31:28.537Z,13.56
2022-10-17T12:34:04.360Z,13.58
2022-10-17T12:36:32.866Z,13.62
2022-10-17T12:39:04.318Z,13.63
2022-10-17T12:41:38.761Z,13.64
2022-10-17T12:44:21.814Z,13.65
2022-10-17T12:47:19.165Z,13.59
2022-10-17T12:49:51.982Z,13.65
2022-10-17T12:52:35.296Z,13.68
2022-10-17T12:55:13.130Z,13.70
2022-10-17T12:58:03.078Z,13.76
2022-10-17T13:00:37.661Z,13.75
2022-10-17T13:03:49.321Z,13.83
2022-10-17T13:06:31.810Z,13.92
2022-10-17T13:09:06.158Z,14.02
2022-10-17T13:11:38.141Z,14.05
2022-10-17T13:14:41.275Z,14.16
2022-10-17T13:17:30.816Z,14.22
2022-10-17T13:19:59.966Z,14.26
2022-10-17T13:22:32.625Z,14.33
2022-10-17T13:25:19.426Z,14.46
2022-10-17T13:28:29.296Z,14.59
2022-10-17T13:30:58.372Z,14.74
2022-10-17T13:33:44.861Z,14.92
2022-10-17T13:36:19.838Z,15.11
2022-10-17T13:38:54.817Z,15.32
2022-10-17T13:41:37.464Z,15.50
2022-10-17T13:44:18.365Z,15.68
2022-10-17T13:46:47.676Z,15.88
2022-10-17T13:49:40.827Z,16.02
2022-10-17T13:52:20.057Z,16.28
2022-10-17T13:54:51.384Z,16.46
2022-10-17T13:57:31.976Z,16.63
2022-10-17T14:00:23.280Z,16.76
2022-10-17T14:02:51.917Z,16.76
2022-10-17T14:05:23.577Z,16.75
2022-10-17T14:08:22.845Z,16.62
2022-10-17T14:10:52.246Z,16.45
2022-10-17T14:13:27.619Z,16.27
2022-10-17T14:16:00.065Z,16.08
2022-10-17T14:18:36.411Z,15.89
2022-10-17T14:21:36.794Z,15.68
2022-10-17T14:24:30.276Z,15.50
2022-10-17T14:27:00.647Z,15.30
2022-10-17T14:29:32.139Z,15.15
2022-10-17T14:32:11.029Z,15.04
2022-10-17T14:34:41.234Z,14.93
2022-10-17T14:37:44.105Z,14.82
2022-10-17T14:40:24.293Z,14.70
2022-10-17T14:42:56.385Z,14.57
2022-10-17T14:45:34.098Z,14.43
2022-10-17T14:48:16.922Z,14.36
2022-10-17T14:51:16.268Z,14.22
2022-10-17T14:54:05.084Z,14.14
2022-10-17T14:56:48.709Z,14.04
2022-10-17T14:59:48.487Z,13.96
2022-10-17T15:02:12.218Z,13.92
2022-10-17T15:04:40.642Z,13.87
2022-10-17T15:07:15.770Z,13.83
2022-10-17T15:09:48.479Z,13.75
2022-10-17T15:12:28.371Z,13.72
2022-10-17T15:14:56.956Z,13.72
2022-10-17T15:17:31.681Z,13.67
2022-10-17T15:20:00.492Z,13.55
2022-10-17T15:22:29.300Z,13.48
2022-10-17T15:24:57.750Z,13.44
2022-10-17T15:27:31.421Z,13.36
2022-10-17T15:30:00.294Z,13.28
2022-10-17T15:32:28.630Z,13.20
2022-10-17T15:34:56.880Z,13.14
2022-10-17T15:37:26.115Z,13.09
2022-10-17T15:39:55.522Z,13.04
2022-10-17T15:42:29.677Z,12.98
2022-10-17T15:44:59.138Z,12.92
2022-10-17T15:47:31.351Z,12.86
2022-10-17T15:50:01.021Z,12.79
2022-10-17T15:52:29.490Z,12.74
2022-10-17T15:55:00.868Z,12.65
2022-10-17T15:57:38.344Z,12.58
2022-10-17T16:00:22.516Z,12.56
2022-10-17T16:02:51.382Z,12.49
2022-10-17T16:05:29.660Z,12.44
2022-10-17T16:07:58.597Z,12.38
2022-10-17T16:10:27.143Z,12.33
2022-10-17T16:12:55.734Z,12.29
2022-10-17T16:15:28.061Z,12.24
2022-10-17T16:18:00.572Z,12.20
2022-10-17T16:20:32.217Z,12.09
2022-10-17T16:23:02.487Z,12.14
2022-10-17T16:25:32.534Z,12.11
2022-10-17T16:28:01.815Z,12.07
2022-10-17T16:30:32.292Z,12.03
2022-10-17T16:33:00.686Z,11.96
2022-10-17T16:35:34.805Z,11.97
2022-10-17T16:38:08.281Z,11.92
2022-10-17T16:40:39.052Z,11.90
2022-10-17T16:43:12.281Z,11.88
2022-10-17T16:45:41.354Z,11.85
2022-10-17T16:48:10.030Z,11.83
2022-10-17T16:50:41.499Z,11.80
2022-10-17T16:53:09.941Z,11.78
2022-10-17T16:55:38.379Z,11.76
2022-10-17T16:58:06.830Z,11.73
2022-10-17T17:00:35.158Z,11.70
2022-10-17T17:03:03.910Z,11.68
2022-10-17T17:05:32.286Z,11.65
2022-10-17T17:08:01.094Z,11.63
2022-10-17T17:10:29.342Z,11.61
2022-10-17T17:12:57.737Z,11.58
2022-10-17T17:15:26.036Z,11.55
2022-10-17T17:17:55.699Z,11.53
2022-10-17T17:20:24.542Z,11.51
2022-10-17T17:22:52.837Z,11.50
2022-10-17T17:25:23.116Z,11.48
2022-10-17T17:27:51.377Z,11.46
2022-10-17T17:30:19.626Z,11.45
2022-10-17T17:32:48.018Z,11.43
2022-10-17T17:35:16.491Z,11.40
2022-10-17T17:37:44.745Z,11.37
2022-10-17T17:40:13.002Z,11.35
2022-10-17T17:42:41.241Z,11.32
2022-10-17T17:45:10.201Z,11.30
2022-10-17T17:47:38.507Z,11.28
2022-10-17T17:50:07.779Z,11.25
2022-10-17T17:52:36.285Z,11.17
2022-10-17T17:55:05.542Z,11.09
2022-10-17T17:57:34.106Z,11.17
2022-10-17T18:00:04.069Z,11.18
2022-10-17T18:02:32.776Z,11.16
2022-10-17T18:05:01.131Z,11.14
2022-10-17T18:07:30.536Z,11.13
2022-10-17T18:09:58.820Z,11.12
2022-10-17T18:12:27.307Z,11.12
2022-10-17T18:14:55.694Z,11.10
2022-10-17T18:17:24.219Z,11.10
2022-10-17T18:19:52.525Z,11.09
2022-10-17T18:22:21.297Z,11.08
2022-10-17T18:24:50.301Z,11.07
2022-10-17T18:27:18.588Z,11.04
2022-10-17T18:29:47.236Z,11.02
2022-10-17T18:32:15.970Z,11.00
2022-10-17T18:34:44.278Z,10.97
2022-10-17T18:37:12.760Z,10.96
2022-10-17T18:39:41.251Z,10.95
2022-10-17T18:42:09.535Z,10.93
2022-10-17T18:44:38.630Z,10.92
2022-10-17T18:47:06.900Z,10.90
2022-10-17T18:49:36.937Z,10.88
2022-10-17T18:52:05.349Z,10.87
2022-10-17T18:54:34.827Z,10.85
2022-10-17T18:57:03.339Z,10.82
2022-10-17T18:59:31.644Z,10.78
2022-10-17T19:02:00.019Z,10.77
2022-10-17T19:04:28.354Z,10.76
2022-10-17T19:06:56.581Z,10.75
2022-10-17T19:09:24.852Z,10.74
2022-10-17T19:11:53.161Z,10.73
2022-10-17T19:14:21.451Z,10.71
2022-10-17T19:16:51.176Z,10.72
2022-10-17T19:19:24.855Z,10.72
2022-10-17T19:21:53.749Z,10.70
2022-10-17T19:24:28.014Z,10.69
2022-10-17T19:26:59.546Z,10.65
2022-10-17T19:29:32.038Z,10.67
2022-10-17T19:32:00.983Z,10.64
2022-10-17T19:34:29.540Z,10.65
2022-10-17T19:36:58.269Z,10.64
2022-10-17T19:39:26.797Z,10.62
2022-10-17T19:41:55.949Z,10.60
2022-10-17T19:44:24.322Z,10.59
2022-10-17T19:46:52.609Z,10.60
2022-10-17T19:49:20.977Z,10.60
2022-10-17T19:51:49.312Z,10.63
2022-10-17T19:54:19.038Z,10.62
2022-10-17T19:56:47.709Z,10.62
2022-10-17T19:59:17.673Z,10.62
2022-10-17T20:01:46.468Z,10.62
2022-10-17T20:04:14.952Z,10.63
2022-10-17T20:06:43.366Z,10.62
2022-10-17T20:09:16.559Z,10.60
2022-10-17T20:11:46.325Z,10.59
2022-10-17T20:14:14.614Z,10.55
2022-10-17T20:16:44.941Z,10.59
2022-10-17T20:19:13.921Z,10.58
2022-10-17T20:21:43.925Z,10.57
2022-10-17T20:24:16.905Z,10.54
2022-10-17T20:26:46.321Z,10.53
2022-10-17T20:29:18.909Z,10.51
2022-10-17T20:31:48.320Z,10.49
2022-10-17T20:34:18.529Z,10.48
2022-10-17T20:36:47.814Z,10.48
2022-10-17T20:39:19.186Z,10.49
2022-10-17T20:41:47.936Z,10.50
2022-10-17T20:44:16.466Z,10.52
2022-10-17T20:47:00.699Z,10.52
2022-10-17T20:49:31.224Z,10.50
2022-10-17T20:52:01.187Z,10.49
2022-10-17T20:54:29.874Z,10.45
2022-10-17T20:57:01.128Z,10.41
2022-10-17T20:59:35.388Z,10.37
2022-10-17T21:02:05.809Z,10.33
2022-10-17T21:04:45.793Z,10.29
2022-10-17T21:07:14.779Z,10.27
2022-10-17T21:09:43.175Z,10.24
2022-10-17T21:12:13.181Z,10.21
2022-10-17T21:14:46.974Z,10.17
2022-10-17T21:17:15.204Z,10.18
2022-10-17T21:19:43.625Z,10.19
2022-10-17T21:22:11.920Z,10.15
2022-10-17T21:24:40.480Z,10.19
2022-10-17T21:27:19.841Z,10.18
2022-10-17T21:29:48.273Z,10.16
2022-10-17T21:32:31.841Z,10.14
2022-10-17T21:35:05.492Z,10.12
2022-10-17T21:37:33.774Z,10.11
2022-10-17T21:40:02.074Z,10.08
2022-10-17T21:42:30.627Z,10.06
2022-10-17T21:44:59.242Z,10.04
2022-10-17T21:47:27.740Z,10.01
2022-10-17T21:49:56.323Z,9.99
2022-10-17T21:52:24.648Z,9.96
2022-10-17T21:54:53.045Z,9.94
2022-10-17T21:57:21.355Z,9.92
2022-10-17T21:59:49.593Z,9.87
2022-10-17T22:02:19.120Z,9.90
2022-10-17T22:04:47.428Z,9.90
2022-10-17T22:07:15.764Z,9.89
2022-10-17T22:09:44.047Z,9.82
2022-10-17T22:12:12.428Z,9.85
2022-10-17T22:14:40.705Z,9.83
2022-10-17T22:17:08.959Z,9.81
2022-10-17T22:19:37.255Z,9.79
2022-10-17T22:22:05.542Z,9.76
2022-10-17T22:24:33.800Z,9.72
2022-10-17T22:27:02.272Z,9.68
2022-10-17T22:29:30.663Z,9.63
2022-10-17T22:32:00.785Z,9.60
2022-10-17T22:34:29.102Z,9.57
2022-10-17T22:36:57.333Z,9.54
2022-10-17T22:39:25.716Z,9.53
2022-10-17T22:41:54.001Z,9.49
2022-10-17T22:44:22.324Z,9.48
2022-10-17T22:46:50.746Z,9.42
2022-10-17T22:49:19.127Z,9.44
2022-10-17T22:51:47.505Z,9.40
2022-10-17T22:54:16.389Z,9.36
2022-10-17T22:56:44.772Z,9.33
2022-10-17T22:59:13.152Z,9.29
2022-10-17T23:01:41.551Z,9.27
2022-10-17T23:04:09.854Z,9.25
2022-10-17T23:06:38.201Z,9.24
2022-10-17T23:09:06.561Z,9.22
2022-10-17T23:11:34.841Z,9.21
2022-10-17T23:14:03.077Z,9.19
2022-10-17T23:16:31.326Z,9.16
2022-10-17T23:18:59.590Z,9.14
2022-10-17T23:21:27.922Z,9.11
2022-10-17T23:23:56.217Z,9.08
2022-10-17T23:26:24.821Z,9.07
2022-10-17T23:28:56.222Z,9.05
2022-10-17T23:31:24.741Z,9.03
2022-10-17T23:33:53.138Z,9.01
2022-10-17T23:36:21.915Z,9.02
2022-10-17T23:38:52.710Z,9.02
2022-10-17T23:41:23.394Z,9.02
2022-10-17T23:43:51.767Z,9.03
2022-10-17T23:46:20.122Z,9.00
2022-10-17T23:48:48.504Z,9.04
2022-10-17T23:51:17.434Z,9.03
2022-10-17T23:53:45.711Z,9.01
2022-10-17T23:56:14.133Z,8.97
2022-10-17T23:58:42.509Z,8.91
